createdAt,value
2018-03-07T00:01:50.154Z,94.15
2018-03-07T00:04:16.169Z,94.07
2018-03-07T00:06:42.185Z,93.99
2018-03-07T00:09:08.470Z,93.87
2018-03-07T00:11:34.558Z,94.00
2018-03-07T00:14:00.753Z,94.00
2018-03-07T00:16:26.756Z,94.48
2018-03-07T00:18:52.857Z,95.11
2018-03-07T00:21:18.923Z,95.22
2018-03-07T00:23:44.915Z,95.07
2018-03-07T00:26:10.930Z,95.29
2018-03-07T00:28:36.958Z,95.18
2018-03-07T00:31:02.940Z,95.00
2018-03-07T00:33:28.969Z,94.95
2018-03-07T00:35:55.011Z,94.83
2018-03-07T00:38:21.005Z,94.58
2018-03-07T00:40:47.036Z,94.32
2018-03-07T00:43:13.087Z,94.10
2018-03-07T00:45:39.172Z,93.88
2018-03-07T00:48:05.178Z,93.81
2018-03-07T00:50:31.225Z,93.75
2018-03-07T00:52:57.245Z,93.82
2018-03-07T00:55:23.266Z,94.01
2018-03-07T00:57:49.284Z,94.01
2018-03-07T01:00:15.393Z,94.38
2018-03-07T01:02:41.409Z,94.44
2018-03-07T01:05:07.430Z,94.21
2018-03-07T01:07:33.426Z,94.08
2018-03-07T01:09:59.449Z,94.26
2018-03-07T01:12:25.446Z,94.16
2018-03-07T01:14:51.437Z,94.12
2018-03-07T01:17:17.453Z,94.04
2018-03-07T01:19:43.428Z,93.77
2018-03-07T01:22:09.406Z,93.90
2018-03-07T01:24:35.421Z,93.78
2018-03-07T01:27:01.433Z,93.66
2018-03-07T01:29:27.461Z,93.97
2018-03-07T01:31:53.450Z,94.52
2018-03-07T01:34:19.435Z,94.44
2018-03-07T01:36:45.467Z,94.30
2018-03-07T01:39:11.494Z,94.19
2018-03-07T01:41:37.526Z,94.22
2018-03-07T01:44:03.498Z,94.47
2018-03-07T01:46:29.621Z,94.59
2018-03-07T01:48:55.621Z,94.58
2018-03-07T01:51:21.568Z,94.86
2018-03-07T01:53:47.644Z,94.86
2018-03-07T01:56:13.645Z,94.61
2018-03-07T01:58:39.678Z,94.52
2018-03-07T02:01:05.774Z,94.59
2018-03-07T02:03:31.789Z,94.46
2018-03-07T02:05:57.861Z,94.58
2018-03-07T02:08:23.861Z,94.35
2018-03-07T02:10:49.896Z,94.43
2018-03-07T02:13:15.918Z,94.92
2018-03-07T02:15:42.028Z,94.86
2018-03-07T02:18:08.009Z,94.65
2018-03-07T02:20:34.026Z,94.65
2018-03-07T02:23:00.223Z,95.01
2018-03-07T02:25:26.292Z,94.95
2018-03-07T02:27:52.325Z,95.15
2018-03-07T02:30:18.325Z,95.22
2018-03-07T02:32:44.423Z,95.11
2018-03-07T02:35:10.399Z,94.98
2018-03-07T02:37:36.405Z,94.97
2018-03-07T02:40:02.458Z,95.20
2018-03-07T02:42:28.503Z,95.10
2018-03-07T02:44:54.473Z,95.17
2018-03-07T02:47:20.483Z,95.18
2018-03-07T02:49:46.558Z,95.00
2018-03-07T02:52:12.488Z,94.82
2018-03-07T02:54:38.495Z,94.78
2018-03-07T02:57:04.463Z,94.65
2018-03-07T02:59:30.468Z,94.54
2018-03-07T03:01:56.461Z,94.37
2018-03-07T03:04:22.451Z,94.30
2018-03-07T03:06:48.458Z,94.28
2018-03-07T03:09:14.458Z,94.32
2018-03-07T03:11:40.438Z,94.53
2018-03-07T03:14:06.375Z,95.43
2018-03-07T03:16:32.389Z,95.87
2018-03-07T03:18:58.373Z,95.47
2018-03-07T03:21:24.424Z,95.34
2018-03-07T03:23:50.440Z,95.28
2018-03-07T03:26:16.473Z,95.11
2018-03-07T03:28:42.483Z,95.24
2018-03-07T03:31:08.540Z,95.22
2018-03-07T03:33:34.550Z,95.28
2018-03-07T03:36:00.585Z,95.18
2018-03-07T03:38:26.586Z,95.32
2018-03-07T03:40:52.592Z,95.87
2018-03-07T03:43:18.639Z,96.09
2018-03-07T03:45:44.803Z,96.07
2018-03-07T03:48:10.822Z,96.15
2018-03-07T03:50:36.848Z,96.17
2018-03-07T03:53:02.865Z,95.94
2018-03-07T03:55:28.892Z,96.03
2018-03-07T03:57:54.914Z,95.92
2018-03-07T04:00:21.497Z,95.80
2018-03-07T04:02:47.456Z,95.75
2018-03-07T04:05:13.498Z,95.60
2018-03-07T04:07:39.532Z,95.74
2018-03-07T04:10:05.523Z,95.62
2018-03-07T04:12:31.628Z,95.58
2018-03-07T04:14:57.657Z,95.69
2018-03-07T04:17:23.674Z,95.59
2018-03-07T04:19:49.666Z,95.55
2018-03-07T04:22:15.692Z,95.48
2018-03-07T04:24:41.693Z,95.38
2018-03-07T04:27:07.719Z,95.15
2018-03-07T04:29:33.739Z,95.12
2018-03-07T04:31:59.935Z,95.62
2018-03-07T04:34:25.948Z,96.10
2018-03-07T04:36:51.961Z,96.34
2018-03-07T04:39:17.977Z,96.19
2018-03-07T04:41:43.956Z,96.05
2018-03-07T04:44:09.970Z,95.87
2018-03-07T04:46:35.935Z,95.67
2018-03-07T04:49:01.930Z,95.55
2018-03-07T04:51:28.162Z,95.26
2018-03-07T04:53:54.197Z,95.33
2018-03-07T04:56:20.287Z,95.52
2018-03-07T04:58:46.332Z,95.40
2018-03-07T05:01:12.653Z,95.23
2018-03-07T05:03:38.734Z,94.97
2018-03-07T05:06:04.786Z,95.00
2018-03-07T05:08:30.797Z,95.08
2018-03-07T05:10:56.822Z,95.31
2018-03-07T05:13:22.836Z,95.52
2018-03-07T05:15:48.849Z,95.77
2018-03-07T05:18:15.249Z,95.73
2018-03-07T05:20:41.249Z,95.58
2018-03-07T05:23:07.245Z,95.43
2018-03-07T05:25:33.340Z,95.61
2018-03-07T05:27:59.372Z,95.52
2018-03-07T05:30:25.423Z,95.80
2018-03-07T05:32:51.435Z,95.83
2018-03-07T05:35:17.507Z,95.65
2018-03-07T05:37:43.463Z,95.37
2018-03-07T05:40:09.454Z,95.20
2018-03-07T05:42:35.551Z,95.07
2018-03-07T05:45:01.566Z,95.18
2018-03-07T05:47:27.527Z,95.15
2018-03-07T05:49:53.597Z,95.03
2018-03-07T05:52:19.613Z,95.37
2018-03-07T05:54:45.599Z,95.51
2018-03-07T05:57:11.641Z,95.34
2018-03-07T05:59:37.626Z,95.55
2018-03-07T06:02:03.636Z,95.52
2018-03-07T06:04:29.691Z,95.38
2018-03-07T06:06:55.775Z,95.33
2018-03-07T06:09:21.729Z,95.21
2018-03-07T06:11:47.811Z,95.21
2018-03-07T06:14:14.680Z,95.24
2018-03-07T06:16:40.673Z,95.37
2018-03-07T06:19:06.711Z,95.24
2018-03-07T06:21:32.766Z,95.07
2018-03-07T06:23:58.767Z,95.16
2018-03-07T06:26:24.706Z,95.73
2018-03-07T06:28:50.722Z,96.43
2018-03-07T06:31:16.802Z,96.24
2018-03-07T06:33:42.832Z,96.09
2018-03-07T06:36:08.853Z,96.25
2018-03-07T06:38:34.945Z,96.17
2018-03-07T06:41:01.413Z,96.26
2018-03-07T06:43:27.447Z,96.07
2018-03-07T06:45:53.482Z,95.83
2018-03-07T06:48:19.516Z,96.81
2018-03-07T06:50:45.534Z,97.08
2018-03-07T06:53:11.589Z,97.25
2018-03-07T06:55:37.633Z,97.22
2018-03-07T06:58:03.671Z,97.30
2018-03-07T07:00:29.652Z,97.15
2018-03-07T07:02:55.670Z,96.89
2018-03-07T07:05:21.726Z,96.74
2018-03-07T07:07:47.741Z,96.66
2018-03-07T07:10:13.780Z,96.49
2018-03-07T07:12:39.817Z,96.17
2018-03-07T07:15:05.910Z,95.91
2018-03-07T07:17:31.960Z,95.91
2018-03-07T07:19:57.960Z,95.58
2018-03-07T07:22:24.046Z,95.53
2018-03-07T07:24:50.062Z,95.53
2018-03-07T07:27:16.116Z,95.55
2018-03-07T07:29:42.099Z,95.61
2018-03-07T07:32:08.117Z,95.59
2018-03-07T07:34:34.146Z,95.64
2018-03-07T07:37:00.177Z,95.76
2018-03-07T07:39:26.218Z,95.73
2018-03-07T07:41:52.222Z,95.93
2018-03-07T07:44:18.248Z,95.89
2018-03-07T07:46:44.251Z,95.83
2018-03-07T07:49:10.318Z,95.64
2018-03-07T07:51:36.405Z,95.54
2018-03-07T07:54:02.482Z,95.50
2018-03-07T07:56:28.525Z,95.41
2018-03-07T07:58:54.490Z,95.24
2018-03-07T08:01:20.531Z,95.10
2018-03-07T08:03:46.546Z,95.19
2018-03-07T08:06:12.577Z,95.05
2018-03-07T08:08:38.565Z,94.83
2018-03-07T08:11:04.534Z,94.85
2018-03-07T08:13:30.577Z,94.59
2018-03-07T08:15:56.587Z,94.28
2018-03-07T08:18:22.603Z,94.22
2018-03-07T08:20:48.656Z,93.90
2018-03-07T08:23:14.671Z,93.88
2018-03-07T08:25:40.681Z,93.84
2018-03-07T08:28:06.732Z,93.61
2018-03-07T08:30:32.733Z,93.70
2018-03-07T08:32:58.741Z,93.72
2018-03-07T08:35:24.764Z,93.74
2018-03-07T08:37:50.768Z,93.78
2018-03-07T08:40:16.778Z,93.94
2018-03-07T08:42:42.835Z,94.07
2018-03-07T08:45:08.827Z,94.15
2018-03-07T08:47:34.821Z,94.00
2018-03-07T08:50:00.857Z,93.98
2018-03-07T08:52:26.889Z,93.77
2018-03-07T08:54:52.925Z,93.82
2018-03-07T08:57:18.977Z,93.80
2018-03-07T08:59:44.978Z,93.78
2018-03-07T09:02:10.993Z,93.69
2018-03-07T09:04:36.989Z,93.75
2018-03-07T09:07:03.020Z,93.54
2018-03-07T09:09:29.042Z,92.98
2018-03-07T09:11:54.997Z,93.05
2018-03-07T09:14:21.026Z,93.05
2018-03-07T09:16:47.033Z,92.66
2018-03-07T09:19:13.024Z,92.39
2018-03-07T09:21:39.018Z,92.12
2018-03-07T09:24:05.096Z,91.59
2018-03-07T09:26:31.140Z,90.74
2018-03-07T09:28:57.156Z,91.25
2018-03-07T09:31:23.204Z,90.93
2018-03-07T09:33:49.184Z,90.76
2018-03-07T09:36:15.242Z,90.38
2018-03-07T09:38:41.263Z,90.32
2018-03-07T09:41:07.305Z,89.52
2018-03-07T09:43:33.438Z,88.93
2018-03-07T09:45:59.496Z,88.77
2018-03-07T09:48:25.500Z,89.30
2018-03-07T09:50:51.503Z,88.58
2018-03-07T09:53:17.553Z,87.75
2018-03-07T09:55:43.609Z,86.72
2018-03-07T09:58:09.645Z,86.74
2018-03-07T10:00:35.656Z,85.50
2018-03-07T10:03:01.694Z,85.99
2018-03-07T10:05:27.722Z,84.61
2018-03-07T10:07:53.734Z,84.66
2018-03-07T10:10:19.730Z,84.75
2018-03-07T10:12:45.749Z,84.39
2018-03-07T10:15:11.761Z,84.04
2018-03-07T10:17:37.809Z,84.04
2018-03-07T10:20:03.969Z,84.03
2018-03-07T10:22:29.915Z,83.04
2018-03-07T10:24:55.898Z,83.01
2018-03-07T10:27:21.946Z,82.86
2018-03-07T10:29:47.980Z,82.60
2018-03-07T10:32:13.983Z,81.64
2018-03-07T10:34:40.018Z,82.27
2018-03-07T10:37:06.028Z,82.78
2018-03-07T10:39:32.037Z,81.30
2018-03-07T10:41:58.049Z,82.35
2018-03-07T10:44:24.090Z,81.50
2018-03-07T10:46:50.109Z,80.79
2018-03-07T10:49:16.270Z,80.61
2018-03-07T10:51:42.243Z,80.48
2018-03-07T10:54:08.213Z,80.16
2018-03-07T10:56:34.252Z,80.06
2018-03-07T10:59:00.292Z,78.15
2018-03-07T11:01:26.292Z,79.68
2018-03-07T11:03:52.320Z,77.22
2018-03-07T11:06:18.353Z,78.55
2018-03-07T11:08:44.438Z,77.66
2018-03-07T11:11:10.518Z,77.61
2018-03-07T11:13:36.501Z,77.87
2018-03-07T11:16:02.533Z,78.26
2018-03-07T11:18:28.482Z,78.34
2018-03-07T11:20:54.452Z,78.18
2018-03-07T11:23:20.488Z,77.64
2018-03-07T11:25:46.506Z,77.84
2018-03-07T11:28:12.543Z,77.00
2018-03-07T11:30:38.553Z,75.69
2018-03-07T11:33:04.553Z,76.07
2018-03-07T11:35:30.558Z,75.01
2018-03-07T11:37:56.572Z,76.25
2018-03-07T11:40:22.582Z,75.07
2018-03-07T11:42:48.608Z,75.58
2018-03-07T11:45:14.590Z,76.02
2018-03-07T11:47:40.649Z,75.80
2018-03-07T11:50:06.675Z,76.43
2018-03-07T11:52:32.681Z,77.24
2018-03-07T11:54:58.721Z,77.98
2018-03-07T11:57:24.734Z,77.25
2018-03-07T11:59:50.778Z,76.94
2018-03-07T12:02:16.801Z,77.09
2018-03-07T12:04:42.840Z,77.50
2018-03-07T12:07:08.885Z,77.95
2018-03-07T12:09:34.838Z,78.45
2018-03-07T12:12:00.927Z,78.71
2018-03-07T12:14:26.949Z,78.78
2018-03-07T12:16:52.955Z,78.47
2018-03-07T12:19:18.993Z,75.24
2018-03-07T12:21:45.024Z,76.62
2018-03-07T12:24:11.042Z,76.80
2018-03-07T12:26:37.122Z,76.30
2018-03-07T12:29:03.177Z,77.04
2018-03-07T12:31:29.185Z,77.37
2018-03-07T12:33:55.225Z,77.38
2018-03-07T12:36:21.258Z,77.61
2018-03-07T12:38:47.300Z,77.24
2018-03-07T12:41:13.340Z,76.55
2018-03-07T12:43:39.354Z,76.60
2018-03-07T12:46:05.350Z,76.75
2018-03-07T12:48:31.360Z,76.23
2018-03-07T12:50:57.437Z,76.01
2018-03-07T12:53:23.488Z,73.73
2018-03-07T12:55:49.492Z,73.41
2018-03-07T12:58:15.562Z,74.11
2018-03-07T13:00:41.604Z,73.70
2018-03-07T13:03:07.645Z,73.58
2018-03-07T13:05:33.689Z,73.45
2018-03-07T13:07:59.725Z,73.00
2018-03-07T13:10:25.764Z,73.17
2018-03-07T13:12:51.803Z,73.01
2018-03-07T13:15:17.809Z,73.27
2018-03-07T13:17:43.813Z,72.93
2018-03-07T13:20:09.837Z,72.63
2018-03-07T13:22:35.849Z,72.48
2018-03-07T13:25:01.854Z,72.96
2018-03-07T13:27:27.905Z,72.77
2018-03-07T13:29:54.035Z,72.92
2018-03-07T13:32:20.027Z,71.54
2018-03-07T13:34:46.080Z,72.27
2018-03-07T13:37:12.086Z,72.56
2018-03-07T13:39:38.084Z,72.35
2018-03-07T13:42:04.049Z,72.34
2018-03-07T13:44:30.058Z,71.97
2018-03-07T13:46:56.096Z,71.60
2018-03-07T13:49:22.123Z,71.98
2018-03-07T13:51:48.087Z,72.05
2018-03-07T13:54:14.105Z,71.91
2018-03-07T13:56:40.164Z,71.31
2018-03-07T13:59:06.187Z,68.43
2018-03-07T14:01:32.154Z,69.00
2018-03-07T14:03:58.176Z,69.52
2018-03-07T14:06:24.194Z,70.01
2018-03-07T14:08:50.265Z,69.76
2018-03-07T14:11:16.297Z,69.76
2018-03-07T14:13:42.294Z,69.23
2018-03-07T14:16:08.317Z,68.79
2018-03-07T14:18:34.314Z,68.26
2018-03-07T14:21:00.345Z,66.22
2018-03-07T14:23:26.373Z,64.90
2018-03-07T14:25:52.389Z,65.93
2018-03-07T14:28:18.433Z,67.21
2018-03-07T14:30:44.397Z,68.20
2018-03-07T14:33:10.446Z,68.40
2018-03-07T14:35:36.474Z,68.55
2018-03-07T14:38:02.537Z,68.66
2018-03-07T14:40:28.676Z,68.74
2018-03-07T14:42:54.717Z,68.96
2018-03-07T14:45:20.717Z,69.26
2018-03-07T14:47:46.803Z,68.73
2018-03-07T14:50:12.793Z,68.79
2018-03-07T14:52:38.790Z,67.69
2018-03-07T14:55:04.958Z,66.32
2018-03-07T14:57:30.928Z,66.77
2018-03-07T14:59:56.969Z,67.39
2018-03-07T15:02:23.001Z,68.07
2018-03-07T15:04:48.991Z,68.26
2018-03-07T15:07:15.079Z,67.85
2018-03-07T15:09:41.129Z,67.94
2018-03-07T15:12:07.226Z,67.77
2018-03-07T15:14:33.177Z,66.93
2018-03-07T15:16:59.259Z,65.94
2018-03-07T15:19:25.272Z,65.87
2018-03-07T15:21:51.266Z,65.08
2018-03-07T15:24:17.302Z,64.92
2018-03-07T15:26:43.402Z,64.36
2018-03-07T15:29:09.442Z,64.72
2018-03-07T15:31:35.481Z,63.28
2018-03-07T15:34:01.585Z,63.22
2018-03-07T15:36:27.617Z,62.48
2018-03-07T15:38:53.708Z,62.20
2018-03-07T15:41:19.726Z,62.33
2018-03-07T15:43:45.740Z,61.92
2018-03-07T15:46:11.858Z,62.01
2018-03-07T15:48:37.878Z,61.75
2018-03-07T15:51:03.933Z,61.94
2018-03-07T15:53:30.027Z,61.43
2018-03-07T15:55:56.140Z,61.70
2018-03-07T15:58:22.177Z,62.01
2018-03-07T16:00:48.267Z,62.16
2018-03-07T16:03:14.655Z,62.24
2018-03-07T16:05:40.688Z,62.14
2018-03-07T16:08:06.707Z,61.47
2018-03-07T16:10:32.661Z,61.59
2018-03-07T16:12:58.729Z,61.74
2018-03-07T16:15:24.813Z,61.72
2018-03-07T16:17:50.965Z,61.84
2018-03-07T16:20:17.006Z,61.20
2018-03-07T16:22:43.030Z,61.48
2018-03-07T16:25:09.213Z,61.42
2018-03-07T16:27:35.262Z,61.67
2018-03-07T16:30:01.988Z,61.43
2018-03-07T16:32:28.042Z,61.26
2018-03-07T16:34:54.116Z,61.22
2018-03-07T16:37:20.231Z,61.40
2018-03-07T16:39:46.283Z,61.72
2018-03-07T16:42:12.364Z,61.71
2018-03-07T16:44:38.445Z,62.12
2018-03-07T16:47:04.538Z,62.36
2018-03-07T16:49:30.612Z,62.98
2018-03-07T16:51:56.685Z,63.53
2018-03-07T16:54:22.736Z,64.02
2018-03-07T16:56:48.839Z,63.43
2018-03-07T16:59:14.922Z,64.04
2018-03-07T17:01:40.991Z,63.22
2018-03-07T17:04:07.013Z,63.13
2018-03-07T17:06:33.108Z,64.75
2018-03-07T17:08:59.154Z,65.95
2018-03-07T17:11:25.122Z,66.94
2018-03-07T17:13:51.169Z,66.23
2018-03-07T17:16:17.190Z,67.18
2018-03-07T17:18:43.230Z,67.59
2018-03-07T17:21:09.325Z,68.09
2018-03-07T17:23:35.580Z,67.77
2018-03-07T17:26:01.646Z,68.30
2018-03-07T17:28:27.649Z,68.93
2018-03-07T17:30:53.657Z,68.34
2018-03-07T17:33:19.663Z,69.31
2018-03-07T17:35:45.737Z,69.59
2018-03-07T17:38:11.809Z,69.52
2018-03-07T17:40:37.902Z,70.77
2018-03-07T17:43:04.062Z,71.19
2018-03-07T17:45:30.107Z,71.33
2018-03-07T17:47:56.126Z,71.37
2018-03-07T17:50:22.173Z,71.29
2018-03-07T17:52:48.193Z,71.02
2018-03-07T17:55:14.300Z,70.94
2018-03-07T17:57:40.310Z,71.19
2018-03-07T18:00:06.449Z,71.98
2018-03-07T18:02:32.489Z,72.49
2018-03-07T18:04:58.547Z,73.26
2018-03-07T18:07:24.661Z,73.29
2018-03-07T18:09:50.708Z,73.41
2018-03-07T18:12:16.743Z,72.65
2018-03-07T18:14:42.810Z,72.46
2018-03-07T18:17:08.919Z,72.24
2018-03-07T18:19:35.016Z,73.54
2018-03-07T18:22:01.104Z,74.50
2018-03-07T18:24:27.157Z,74.61
2018-03-07T18:26:53.204Z,74.87
2018-03-07T18:29:19.275Z,75.00
2018-03-07T18:31:45.299Z,75.58
2018-03-07T18:34:11.309Z,75.54
2018-03-07T18:36:37.372Z,75.28
2018-03-07T18:39:03.399Z,74.29
2018-03-07T18:41:29.398Z,74.13
2018-03-07T18:43:55.512Z,74.52
2018-03-07T18:46:21.581Z,75.16
2018-03-07T18:48:47.690Z,75.34
2018-03-07T18:51:13.767Z,75.84
2018-03-07T18:53:39.869Z,77.01
2018-03-07T18:56:05.958Z,77.30
2018-03-07T18:58:32.053Z,77.47
2018-03-07T19:00:58.180Z,77.41
2018-03-07T19:03:24.310Z,77.75
2018-03-07T19:05:50.353Z,78.18
2018-03-07T19:13:09.920Z,77.50
2018-03-07T19:15:35.954Z,77.47
2018-03-07T19:18:02.016Z,77.03
2018-03-07T19:20:28.047Z,76.87
2018-03-07T19:22:54.386Z,77.34
2018-03-07T19:25:20.474Z,78.01
2018-03-07T19:27:46.568Z,78.48
2018-03-07T19:30:12.502Z,78.66
2018-03-07T19:32:38.522Z,78.15
2018-03-07T19:35:04.635Z,77.97
2018-03-07T19:37:30.654Z,77.96
2018-03-07T19:39:56.722Z,78.44
2018-03-07T19:42:22.743Z,79.50
2018-03-07T19:44:48.823Z,79.53
2018-03-07T19:47:14.942Z,79.66
2018-03-07T19:49:41.081Z,79.79
2018-03-07T19:52:07.314Z,79.40
2018-03-07T19:54:36.533Z,79.31
2018-03-07T19:57:02.636Z,79.52
2018-03-07T19:59:28.685Z,79.60
2018-03-07T20:01:54.705Z,80.34
2018-03-07T20:04:20.776Z,80.36
2018-03-07T20:06:46.831Z,80.22
2018-03-07T20:09:12.839Z,80.16
2018-03-07T20:11:38.977Z,80.34
2018-03-07T20:14:05.010Z,80.10
2018-03-07T20:16:31.054Z,80.34
2018-03-07T20:18:57.248Z,80.41
2018-03-07T20:21:23.317Z,80.67
2018-03-07T20:23:49.333Z,80.25
2018-03-07T20:26:15.277Z,80.03
2018-03-07T20:28:42.318Z,79.16
2018-03-07T20:31:08.466Z,79.38
2018-03-07T20:33:34.438Z,79.70
2018-03-07T20:36:00.480Z,80.92
2018-03-07T20:38:26.530Z,80.92
2018-03-07T20:40:52.537Z,79.86
2018-03-07T20:43:18.621Z,79.92
2018-03-07T20:45:44.675Z,81.42
2018-03-07T20:48:10.724Z,82.73
2018-03-07T20:50:36.769Z,83.08
2018-03-07T20:53:02.825Z,82.56
2018-03-07T20:55:28.862Z,82.51
2018-03-07T20:57:54.849Z,82.62
2018-03-07T21:00:20.940Z,82.47
2018-03-07T21:02:47.013Z,79.15
2018-03-07T21:05:13.093Z,80.42
2018-03-07T21:07:39.072Z,81.29
2018-03-07T21:10:05.094Z,79.07
2018-03-07T21:12:31.058Z,77.26
2018-03-07T21:14:57.074Z,75.73
2018-03-07T21:17:23.076Z,75.00
2018-03-07T21:19:49.084Z,73.65
2018-03-07T21:22:15.161Z,73.09
2018-03-07T21:24:41.174Z,72.54
2018-03-07T21:27:07.209Z,72.12
2018-03-07T21:29:33.217Z,72.25
2018-03-07T21:31:59.199Z,71.89
2018-03-07T21:34:25.246Z,71.75
2018-03-07T21:36:51.303Z,71.68
2018-03-07T21:39:17.273Z,71.38
2018-03-07T21:41:43.294Z,71.59
2018-03-07T21:44:09.322Z,71.67
2018-03-07T21:46:35.377Z,71.66
2018-03-07T21:49:01.403Z,71.73
2018-03-07T21:51:28.345Z,71.77
2018-03-07T21:53:54.313Z,71.92
2018-03-07T21:56:20.370Z,71.77
2018-03-07T21:58:46.393Z,72.02
2018-03-07T22:01:12.521Z,71.99
2018-03-07T22:03:38.524Z,71.76
2018-03-07T22:06:04.548Z,71.74
2018-03-07T22:08:30.629Z,71.65
2018-03-07T22:10:56.620Z,71.76
2018-03-07T22:13:22.619Z,71.57
2018-03-07T22:15:48.613Z,71.69
2018-03-07T22:18:14.633Z,71.67
2018-03-07T22:20:40.575Z,71.85
2018-03-07T22:23:06.646Z,72.04
2018-03-07T22:25:32.673Z,72.35
2018-03-07T22:27:58.691Z,72.48
2018-03-07T22:30:24.737Z,72.81
2018-03-07T22:32:50.784Z,73.17
2018-03-07T22:35:16.797Z,73.35
2018-03-07T22:37:42.842Z,73.63
2018-03-07T22:40:08.870Z,73.86
2018-03-07T22:42:34.859Z,73.90
2018-03-07T22:45:00.881Z,74.16
2018-03-07T22:47:26.901Z,74.37
2018-03-07T22:49:52.909Z,74.32
2018-03-07T22:52:18.921Z,74.35
2018-03-07T22:54:44.956Z,74.40
2018-03-07T22:57:10.996Z,74.37
2018-03-07T22:59:37.093Z,74.19
2018-03-07T23:02:03.062Z,74.35
2018-03-07T23:04:36.222Z,74.33
2018-03-07T23:07:02.259Z,74.26
2018-03-07T23:09:28.258Z,74.32
2018-03-07T23:11:54.282Z,74.08
2018-03-07T23:14:20.295Z,74.27
2018-03-07T23:16:46.306Z,74.52
2018-03-07T23:19:12.273Z,74.68
2018-03-07T23:21:38.253Z,75.03
2018-03-07T23:24:04.300Z,75.14
2018-03-07T23:26:30.394Z,74.53
2018-03-07T23:28:56.382Z,74.60
2018-03-07T23:31:22.394Z,74.40
2018-03-07T23:33:48.497Z,74.59
2018-03-07T23:36:14.489Z,74.32
2018-03-07T23:38:40.512Z,74.27
2018-03-07T23:41:06.521Z,74.33
2018-03-07T23:43:32.525Z,74.38
2018-03-07T23:45:58.549Z,74.37
2018-03-07T23:48:24.588Z,74.43
2018-03-07T23:50:50.629Z,74.38
2018-03-07T23:53:16.755Z,74.28
2018-03-07T23:55:42.690Z,74.26
2018-03-07T23:58:08.673Z,74.14
